sensor_id;sensor_type;location;lat;lon;timestamp;P1;durP1;ratioP1;P2;durP2;ratioP2
1567;SDS011;777;47.156;8.326;2022-12-18T00:00:59;73.88;;;50.72;;
1567;SDS011;777;47.156;8.326;2022-12-18T00:03:28;67.38;;;47.92;;
1567;SDS011;777;47.156;8.326;2022-12-18T00:05:55;67.18;;;48.03;;
1567;SDS011;777;47.156;8.326;2022-12-18T00:08:22;67.38;;;46.17;;
1567;SDS011;777;47.156;8.326;2022-12-18T00:10:49;71.32;;;46.50;;
1567;SDS011;777;47.156;8.326;2022-12-18T00:13:18;67.78;;;45.92;;
1567;SDS011;777;47.156;8.326;2022-12-18T00:15:45;67.93;;;48.85;;
1567;SDS011;777;47.156;8.326;2022-12-18T00:18:12;66.78;;;46.83;;
1567;SDS011;777;47.156;8.326;2022-12-18T00:20:39;67.40;;;47.45;;
1567;SDS011;777;47.156;8.326;2022-12-18T00:23:06;72.55;;;53.45;;
1567;SDS011;777;47.156;8.326;2022-12-18T00:25:33;69.85;;;49.38;;
1567;SDS011;777;47.156;8.326;2022-12-18T00:28:01;70.20;;;49.42;;
1567;SDS011;777;47.156;8.326;2022-12-18T00:30:29;72.53;;;49.83;;
1567;SDS011;777;47.156;8.326;2022-12-18T00:32:57;70.03;;;49.95;;
1567;SDS011;777;47.156;8.326;2022-12-18T00:35:24;72.65;;;49.15;;
1567;SDS011;777;47.156;8.326;2022-12-18T00:37:51;74.30;;;51.58;;
1567;SDS011;777;47.156;8.326;2022-12-18T00:40:18;75.38;;;52.38;;
1567;SDS011;777;47.156;8.326;2022-12-18T00:42:45;75.18;;;51.70;;
1567;SDS011;777;47.156;8.326;2022-12-18T00:45:23;76.68;;;52.42;;
1567;SDS011;777;47.156;8.326;2022-12-18T00:47:53;76.47;;;51.75;;
1567;SDS011;777;47.156;8.326;2022-12-18T00:50:21;81.53;;;54.92;;
1567;SDS011;777;47.156;8.326;2022-12-18T00:52:48;82.70;;;54.90;;
1567;SDS011;777;47.156;8.326;2022-12-18T00:55:15;83.32;;;54.55;;
1567;SDS011;777;47.156;8.326;2022-12-18T00:57:43;75.18;;;51.53;;
1567;SDS011;777;47.156;8.326;2022-12-18T01:00:12;78.47;;;51.40;;
1567;SDS011;777;47.156;8.326;2022-12-18T01:02:40;78.80;;;52.78;;
1567;SDS011;777;47.156;8.326;2022-12-18T01:05:09;81.82;;;53.85;;
1567;SDS011;777;47.156;8.326;2022-12-18T01:07:41;79.40;;;52.63;;
1567;SDS011;777;47.156;8.326;2022-12-18T01:10:09;82.35;;;55.80;;
1567;SDS011;777;47.156;8.326;2022-12-18T01:12:38;78.88;;;53.03;;
1567;SDS011;777;47.156;8.326;2022-12-18T01:15:05;76.20;;;51.95;;
1567;SDS011;777;47.156;8.326;2022-12-18T01:17:33;78.43;;;55.28;;
1567;SDS011;777;47.156;8.326;2022-12-18T01:20:00;82.60;;;55.53;;
1567;SDS011;777;47.156;8.326;2022-12-18T01:22:28;79.40;;;54.00;;
1567;SDS011;777;47.156;8.326;2022-12-18T01:24:59;79.97;;;52.03;;
1567;SDS011;777;47.156;8.326;2022-12-18T01:27:26;74.18;;;48.70;;
1567;SDS011;777;47.156;8.326;2022-12-18T01:29:53;78.57;;;53.55;;
1567;SDS011;777;47.156;8.326;2022-12-18T01:32:20;76.45;;;53.03;;
1567;SDS011;777;47.156;8.326;2022-12-18T01:34:49;81.47;;;56.22;;
1567;SDS011;777;47.156;8.326;2022-12-18T01:37:16;81.10;;;54.55;;
1567;SDS011;777;47.156;8.326;2022-12-18T01:39:44;80.45;;;55.20;;
1567;SDS011;777;47.156;8.326;2022-12-18T01:42:12;79.45;;;53.85;;
1567;SDS011;777;47.156;8.326;2022-12-18T01:47:38;76.82;;;52.30;;
1567;SDS011;777;47.156;8.326;2022-12-18T01:50:10;74.05;;;50.13;;
1567;SDS011;777;47.156;8.326;2022-12-18T01:52:39;74.47;;;49.83;;
1567;SDS011;777;47.156;8.326;2022-12-18T01:55:10;70.55;;;49.28;;
1567;SDS011;777;47.156;8.326;2022-12-18T01:57:39;67.47;;;46.38;;
1567;SDS011;777;47.156;8.326;2022-12-18T02:00:09;69.25;;;46.78;;
1567;SDS011;777;47.156;8.326;2022-12-18T02:02:39;71.07;;;46.38;;
1567;SDS011;777;47.156;8.326;2022-12-18T02:05:07;63.92;;;44.38;;
1567;SDS011;777;47.156;8.326;2022-12-18T02:07:38;60.95;;;43.55;;
1567;SDS011;777;47.156;8.326;2022-12-18T02:10:15;64.63;;;43.90;;
1567;SDS011;777;47.156;8.326;2022-12-18T02:12:48;62.13;;;43.67;;
1567;SDS011;777;47.156;8.326;2022-12-18T02:15:19;66.53;;;44.78;;
1567;SDS011;777;47.156;8.326;2022-12-18T02:17:52;59.70;;;42.80;;
1567;SDS011;777;47.156;8.326;2022-12-18T02:20:24;64.50;;;42.85;;
1567;SDS011;777;47.156;8.326;2022-12-18T02:23:02;60.25;;;42.45;;
1567;SDS011;777;47.156;8.326;2022-12-18T02:28:30;62.28;;;41.33;;
1567;SDS011;777;47.156;8.326;2022-12-18T02:33:33;66.22;;;44.83;;
1567;SDS011;777;47.156;8.326;2022-12-18T02:36:02;64.45;;;44.92;;
1567;SDS011;777;47.156;8.326;2022-12-18T02:38:31;64.85;;;43.83;;
1567;SDS011;777;47.156;8.326;2022-12-18T02:41:07;64.22;;;43.90;;
1567;SDS011;777;47.156;8.326;2022-12-18T02:43:35;63.33;;;43.15;;
1567;SDS011;777;47.156;8.326;2022-12-18T02:48:52;67.20;;;45.38;;
1567;SDS011;777;47.156;8.326;2022-12-18T02:51:27;65.60;;;44.78;;
1567;SDS011;777;47.156;8.326;2022-12-18T02:54:00;68.78;;;45.47;;
1567;SDS011;777;47.156;8.326;2022-12-18T02:56:37;67.13;;;45.70;;
1567;SDS011;777;47.156;8.326;2022-12-18T02:59:09;70.05;;;45.92;;
1567;SDS011;777;47.156;8.326;2022-12-18T03:01:50;70.82;;;44.00;;
1567;SDS011;777;47.156;8.326;2022-12-18T03:04:22;66.00;;;42.38;;
1567;SDS011;777;47.156;8.326;2022-12-18T03:06:55;63.47;;;37.67;;
1567;SDS011;777;47.156;8.326;2022-12-18T03:09:28;61.88;;;35.47;;
1567;SDS011;777;47.156;8.326;2022-12-18T03:12:02;59.78;;;34.78;;
1567;SDS011;777;47.156;8.326;2022-12-18T03:14:55;64.25;;;35.45;;
1567;SDS011;777;47.156;8.326;2022-12-18T03:17:26;60.30;;;34.90;;
1567;SDS011;777;47.156;8.326;2022-12-18T03:19:56;60.78;;;34.28;;
1567;SDS011;777;47.156;8.326;2022-12-18T03:22:27;60.42;;;35.15;;
1567;SDS011;777;47.156;8.326;2022-12-18T03:24:58;60.70;;;34.85;;
1567;SDS011;777;47.156;8.326;2022-12-18T03:27:30;62.28;;;34.22;;
1567;SDS011;777;47.156;8.326;2022-12-18T03:30:07;58.92;;;34.38;;
1567;SDS011;777;47.156;8.326;2022-12-18T03:32:39;60.92;;;34.67;;
1567;SDS011;777;47.156;8.326;2022-12-18T03:35:11;61.78;;;36.20;;
1567;SDS011;777;47.156;8.326;2022-12-18T03:37:43;64.55;;;37.03;;
1567;SDS011;777;47.156;8.326;2022-12-18T03:40:11;56.65;;;34.42;;
1567;SDS011;777;47.156;8.326;2022-12-18T03:42:42;60.55;;;36.47;;
1567;SDS011;777;47.156;8.326;2022-12-18T03:45:19;61.55;;;35.25;;
1567;SDS011;777;47.156;8.326;2022-12-18T03:47:51;61.95;;;35.97;;
1567;SDS011;777;47.156;8.326;2022-12-18T03:50:30;62.63;;;36.30;;
1567;SDS011;777;47.156;8.326;2022-12-18T03:53:07;66.93;;;37.47;;
1567;SDS011;777;47.156;8.326;2022-12-18T03:55:46;64.53;;;36.95;;
1567;SDS011;777;47.156;8.326;2022-12-18T03:58:19;63.92;;;37.60;;
1567;SDS011;777;47.156;8.326;2022-12-18T04:01:00;61.35;;;38.08;;
1567;SDS011;777;47.156;8.326;2022-12-18T04:03:33;65.78;;;39.78;;
1567;SDS011;777;47.156;8.326;2022-12-18T04:06:02;60.33;;;36.10;;
1567;SDS011;777;47.156;8.326;2022-12-18T04:08:31;58.15;;;35.33;;
1567;SDS011;777;47.156;8.326;2022-12-18T04:11:03;58.45;;;34.58;;
1567;SDS011;777;47.156;8.326;2022-12-18T04:13:34;56.97;;;34.63;;
1567;SDS011;777;47.156;8.326;2022-12-18T04:16:06;60.75;;;36.15;;
1567;SDS011;777;47.156;8.326;2022-12-18T04:18:38;57.08;;;35.40;;
1567;SDS011;777;47.156;8.326;2022-12-18T04:21:07;58.83;;;35.25;;
1567;SDS011;777;47.156;8.326;2022-12-18T04:23:35;59.25;;;35.17;;
1567;SDS011;777;47.156;8.326;2022-12-18T04:26:02;58.30;;;34.13;;
1567;SDS011;777;47.156;8.326;2022-12-18T04:28:49;58.92;;;33.88;;
1567;SDS011;777;47.156;8.326;2022-12-18T04:31:16;58.40;;;33.30;;
1567;SDS011;777;47.156;8.326;2022-12-18T04:33:43;50.83;;;31.13;;
1567;SDS011;777;47.156;8.326;2022-12-18T04:36:10;56.15;;;34.28;;
1567;SDS011;777;47.156;8.326;2022-12-18T04:38:39;57.38;;;32.78;;
1567;SDS011;777;47.156;8.326;2022-12-18T04:41:13;53.58;;;32.28;;
1567;SDS011;777;47.156;8.326;2022-12-18T04:43:42;56.30;;;32.75;;
1567;SDS011;777;47.156;8.326;2022-12-18T04:46:10;53.63;;;31.27;;
1567;SDS011;777;47.156;8.326;2022-12-18T04:48:37;51.80;;;32.08;;
1567;SDS011;777;47.156;8.326;2022-12-18T04:51:05;53.00;;;31.48;;
1567;SDS011;777;47.156;8.326;2022-12-18T04:53:32;47.55;;;30.83;;
1567;SDS011;777;47.156;8.326;2022-12-18T04:56:03;53.08;;;32.72;;
1567;SDS011;777;47.156;8.326;2022-12-18T04:58:32;51.58;;;30.77;;
1567;SDS011;777;47.156;8.326;2022-12-18T05:00:59;53.45;;;31.98;;
1567;SDS011;777;47.156;8.326;2022-12-18T05:03:27;48.67;;;29.65;;
1567;SDS011;777;47.156;8.326;2022-12-18T05:05:54;49.50;;;30.77;;
1567;SDS011;777;47.156;8.326;2022-12-18T05:08:21;50.50;;;30.75;;
1567;SDS011;777;47.156;8.326;2022-12-18T05:10:48;53.33;;;32.67;;
1567;SDS011;777;47.156;8.326;2022-12-18T05:13:15;53.42;;;31.65;;
1567;SDS011;777;47.156;8.326;2022-12-18T05:15:42;49.25;;;30.50;;
1567;SDS011;777;47.156;8.326;2022-12-18T05:18:17;54.10;;;30.67;;
1567;SDS011;777;47.156;8.326;2022-12-18T05:20:45;50.20;;;31.80;;
1567;SDS011;777;47.156;8.326;2022-12-18T05:23:12;51.83;;;30.30;;
1567;SDS011;777;47.156;8.326;2022-12-18T05:25:39;53.65;;;31.48;;
1567;SDS011;777;47.156;8.326;2022-12-18T05:28:06;52.85;;;29.33;;
1567;SDS011;777;47.156;8.326;2022-12-18T05:30:33;52.17;;;30.25;;
1567;SDS011;777;47.156;8.326;2022-12-18T05:33:00;55.75;;;31.35;;
1567;SDS011;777;47.156;8.326;2022-12-18T05:35:27;53.45;;;30.02;;
1567;SDS011;777;47.156;8.326;2022-12-18T05:37:55;57.15;;;32.75;;
1567;SDS011;777;47.156;8.326;2022-12-18T05:40:22;61.70;;;31.90;;
1567;SDS011;777;47.156;8.326;2022-12-18T05:42:49;53.72;;;31.40;;
1567;SDS011;777;47.156;8.326;2022-12-18T05:45:16;55.63;;;31.60;;
1567;SDS011;777;47.156;8.326;2022-12-18T05:47:44;55.63;;;31.10;;
1567;SDS011;777;47.156;8.326;2022-12-18T05:50:11;53.70;;;29.63;;
1567;SDS011;777;47.156;8.326;2022-12-18T05:52:38;56.67;;;30.77;;
1567;SDS011;777;47.156;8.326;2022-12-18T05:55:06;48.20;;;27.65;;
1567;SDS011;777;47.156;8.326;2022-12-18T05:57:34;51.20;;;29.52;;
1567;SDS011;777;47.156;8.326;2022-12-18T06:00:01;50.97;;;28.92;;
1567;SDS011;777;47.156;8.326;2022-12-18T06:02:37;56.92;;;31.05;;
1567;SDS011;777;47.156;8.326;2022-12-18T06:05:04;54.83;;;30.58;;
1567;SDS011;777;47.156;8.326;2022-12-18T06:07:32;54.55;;;29.98;;
1567;SDS011;777;47.156;8.326;2022-12-18T06:09:59;53.95;;;29.20;;
1567;SDS011;777;47.156;8.326;2022-12-18T06:12:27;52.90;;;29.38;;
1567;SDS011;777;47.156;8.326;2022-12-18T06:14:54;52.05;;;29.83;;
1567;SDS011;777;47.156;8.326;2022-12-18T06:17:21;49.53;;;29.17;;
1567;SDS011;777;47.156;8.326;2022-12-18T06:19:48;54.60;;;30.17;;
1567;SDS011;777;47.156;8.326;2022-12-18T06:22:15;52.72;;;29.17;;
1567;SDS011;777;47.156;8.326;2022-12-18T06:24:42;53.10;;;29.58;;
1567;SDS011;777;47.156;8.326;2022-12-18T06:27:09;50.38;;;29.50;;
1567;SDS011;777;47.156;8.326;2022-12-18T06:29:38;45.95;;;28.13;;
1567;SDS011;777;47.156;8.326;2022-12-18T06:32:05;49.08;;;29.23;;
1567;SDS011;777;47.156;8.326;2022-12-18T06:34:32;46.60;;;28.67;;
1567;SDS011;777;47.156;8.326;2022-12-18T06:36:59;47.00;;;29.05;;
1567;SDS011;777;47.156;8.326;2022-12-18T06:39:27;45.83;;;28.17;;
1567;SDS011;777;47.156;8.326;2022-12-18T06:41:54;42.60;;;26.85;;
1567;SDS011;777;47.156;8.326;2022-12-18T06:44:21;44.80;;;27.65;;
1567;SDS011;777;47.156;8.326;2022-12-18T06:46:49;46.80;;;29.52;;
1567;SDS011;777;47.156;8.326;2022-12-18T06:49:16;47.55;;;29.65;;
1567;SDS011;777;47.156;8.326;2022-12-18T06:51:43;42.63;;;27.38;;
1567;SDS011;777;47.156;8.326;2022-12-18T06:54:10;43.05;;;27.95;;
1567;SDS011;777;47.156;8.326;2022-12-18T06:56:37;43.25;;;27.75;;
1567;SDS011;777;47.156;8.326;2022-12-18T06:59:04;40.63;;;26.92;;
1567;SDS011;777;47.156;8.326;2022-12-18T07:01:31;43.17;;;26.13;;
1567;SDS011;777;47.156;8.326;2022-12-18T07:04:00;41.60;;;27.05;;
1567;SDS011;777;47.156;8.326;2022-12-18T07:06:27;45.08;;;28.35;;
1567;SDS011;777;47.156;8.326;2022-12-18T07:08:54;40.17;;;25.98;;
1567;SDS011;777;47.156;8.326;2022-12-18T07:11:21;40.50;;;25.90;;
1567;SDS011;777;47.156;8.326;2022-12-18T07:13:49;39.83;;;26.05;;
1567;SDS011;777;47.156;8.326;2022-12-18T07:16:16;43.13;;;27.05;;
1567;SDS011;777;47.156;8.326;2022-12-18T07:18:44;45.08;;;28.23;;
1567;SDS011;777;47.156;8.326;2022-12-18T07:21:13;42.70;;;27.10;;
1567;SDS011;777;47.156;8.326;2022-12-18T07:23:44;41.95;;;24.75;;
1567;SDS011;777;47.156;8.326;2022-12-18T07:26:13;41.33;;;25.75;;
1567;SDS011;777;47.156;8.326;2022-12-18T07:28:42;45.15;;;27.27;;
1567;SDS011;777;47.156;8.326;2022-12-18T07:31:10;41.08;;;25.75;;
1567;SDS011;777;47.156;8.326;2022-12-18T07:33:39;42.38;;;26.40;;
1567;SDS011;777;47.156;8.326;2022-12-18T07:36:06;40.22;;;25.92;;
1567;SDS011;777;47.156;8.326;2022-12-18T07:38:37;44.75;;;26.95;;
1567;SDS011;777;47.156;8.326;2022-12-18T07:41:06;44.80;;;27.38;;
1567;SDS011;777;47.156;8.326;2022-12-18T07:43:34;44.00;;;27.67;;
1567;SDS011;777;47.156;8.326;2022-12-18T07:46:02;38.55;;;22.55;;
1567;SDS011;777;47.156;8.326;2022-12-18T07:48:30;35.70;;;21.98;;
1567;SDS011;777;47.156;8.326;2022-12-18T07:50:57;35.97;;;22.15;;
1567;SDS011;777;47.156;8.326;2022-12-18T07:53:25;37.90;;;23.88;;
1567;SDS011;777;47.156;8.326;2022-12-18T07:55:55;38.08;;;23.10;;
1567;SDS011;777;47.156;8.326;2022-12-18T07:58:23;34.80;;;21.23;;
1567;SDS011;777;47.156;8.326;2022-12-18T08:00:50;38.53;;;22.25;;
1567;SDS011;777;47.156;8.326;2022-12-18T08:03:18;35.05;;;22.08;;
1567;SDS011;777;47.156;8.326;2022-12-18T08:05:45;37.25;;;22.38;;
1567;SDS011;777;47.156;8.326;2022-12-18T08:08:16;35.13;;;22.33;;
1567;SDS011;777;47.156;8.326;2022-12-18T08:10:43;35.53;;;22.15;;
1567;SDS011;777;47.156;8.326;2022-12-18T08:13:11;37.33;;;22.77;;
1567;SDS011;777;47.156;8.326;2022-12-18T08:15:38;35.30;;;21.63;;
1567;SDS011;777;47.156;8.326;2022-12-18T08:18:05;39.33;;;24.33;;
1567;SDS011;777;47.156;8.326;2022-12-18T08:20:32;39.13;;;23.65;;
1567;SDS011;777;47.156;8.326;2022-12-18T08:22:59;35.42;;;22.48;;
1567;SDS011;777;47.156;8.326;2022-12-18T08:25:26;34.85;;;22.25;;
1567;SDS011;777;47.156;8.326;2022-12-18T08:27:53;38.30;;;23.42;;
1567;SDS011;777;47.156;8.326;2022-12-18T08:30:23;36.85;;;23.00;;
1567;SDS011;777;47.156;8.326;2022-12-18T08:32:50;38.92;;;23.98;;
1567;SDS011;777;47.156;8.326;2022-12-18T08:35:18;39.97;;;24.33;;
1567;SDS011;777;47.156;8.326;2022-12-18T08:37:45;33.80;;;23.38;;
1567;SDS011;777;47.156;8.326;2022-12-18T08:40:12;38.75;;;25.98;;
1567;SDS011;777;47.156;8.326;2022-12-18T08:42:39;36.55;;;24.15;;
1567;SDS011;777;47.156;8.326;2022-12-18T08:45:25;39.40;;;25.70;;
1567;SDS011;777;47.156;8.326;2022-12-18T08:47:52;39.58;;;25.60;;
1567;SDS011;777;47.156;8.326;2022-12-18T08:50:19;41.80;;;26.60;;
1567;SDS011;777;47.156;8.326;2022-12-18T08:52:46;40.15;;;26.65;;
1567;SDS011;777;47.156;8.326;2022-12-18T08:55:13;35.50;;;24.60;;
1567;SDS011;777;47.156;8.326;2022-12-18T08:57:40;38.75;;;26.45;;
1567;SDS011;777;47.156;8.326;2022-12-18T09:00:07;38.03;;;24.40;;
1567;SDS011;777;47.156;8.326;2022-12-18T09:02:37;39.58;;;25.23;;
1567;SDS011;777;47.156;8.326;2022-12-18T09:05:04;38.15;;;24.27;;
1567;SDS011;777;47.156;8.326;2022-12-18T09:07:31;36.42;;;23.98;;
1567;SDS011;777;47.156;8.326;2022-12-18T09:09:58;39.90;;;25.95;;
1567;SDS011;777;47.156;8.326;2022-12-18T09:12:25;37.85;;;24.02;;
1567;SDS011;777;47.156;8.326;2022-12-18T09:14:52;39.38;;;25.17;;
1567;SDS011;777;47.156;8.326;2022-12-18T09:17:19;35.90;;;24.15;;
1567;SDS011;777;47.156;8.326;2022-12-18T09:19:48;36.47;;;23.77;;
1567;SDS011;777;47.156;8.326;2022-12-18T09:22:15;38.05;;;25.65;;
1567;SDS011;777;47.156;8.326;2022-12-18T09:24:42;36.65;;;24.17;;
1567;SDS011;777;47.156;8.326;2022-12-18T09:27:09;38.33;;;25.05;;
1567;SDS011;777;47.156;8.326;2022-12-18T09:29:36;35.47;;;24.00;;
1567;SDS011;777;47.156;8.326;2022-12-18T09:32:03;38.03;;;24.90;;
1567;SDS011;777;47.156;8.326;2022-12-18T09:34:31;39.60;;;24.25;;
1567;SDS011;777;47.156;8.326;2022-12-18T09:36:59;39.70;;;26.17;;
1567;SDS011;777;47.156;8.326;2022-12-18T09:39:26;36.20;;;23.77;;
1567;SDS011;777;47.156;8.326;2022-12-18T09:41:54;38.65;;;25.20;;
1567;SDS011;777;47.156;8.326;2022-12-18T09:44:24;36.42;;;24.38;;
1567;SDS011;777;47.156;8.326;2022-12-18T09:46:54;36.85;;;25.05;;
1567;SDS011;777;47.156;8.326;2022-12-18T09:49:38;36.78;;;24.33;;
1567;SDS011;777;47.156;8.326;2022-12-18T09:52:11;36.70;;;24.55;;
1567;SDS011;777;47.156;8.326;2022-12-18T09:54:42;35.17;;;24.48;;
1567;SDS011;777;47.156;8.326;2022-12-18T09:57:13;38.72;;;25.45;;
1567;SDS011;777;47.156;8.326;2022-12-18T09:59:46;38.88;;;25.00;;
1567;SDS011;777;47.156;8.326;2022-12-18T10:02:19;34.80;;;24.17;;
1567;SDS011;777;47.156;8.326;2022-12-18T10:04:49;41.72;;;25.33;;
1567;SDS011;777;47.156;8.326;2022-12-18T10:07:27;39.10;;;25.70;;
1567;SDS011;777;47.156;8.326;2022-12-18T10:10:04;38.17;;;24.80;;
1567;SDS011;777;47.156;8.326;2022-12-18T10:12:39;38.58;;;25.95;;
1567;SDS011;777;47.156;8.326;2022-12-18T10:15:13;39.33;;;25.33;;
1567;SDS011;777;47.156;8.326;2022-12-18T10:17:46;41.13;;;26.88;;
1567;SDS011;777;47.156;8.326;2022-12-18T10:20:20;37.85;;;25.08;;
1567;SDS011;777;47.156;8.326;2022-12-18T10:22:56;40.75;;;25.63;;
1567;SDS011;777;47.156;8.326;2022-12-18T10:25:28;38.17;;;24.80;;
1567;SDS011;777;47.156;8.326;2022-12-18T10:28:06;39.05;;;24.85;;
1567;SDS011;777;47.156;8.326;2022-12-18T10:30:36;36.30;;;24.42;;
1567;SDS011;777;47.156;8.326;2022-12-18T10:33:05;37.08;;;24.50;;
1567;SDS011;777;47.156;8.326;2022-12-18T10:35:37;36.55;;;25.30;;
1567;SDS011;777;47.156;8.326;2022-12-18T10:38:21;35.72;;;24.80;;
1567;SDS011;777;47.156;8.326;2022-12-18T10:40:50;37.35;;;25.25;;
1567;SDS011;777;47.156;8.326;2022-12-18T10:43:20;36.63;;;24.85;;
1567;SDS011;777;47.156;8.326;2022-12-18T10:45:58;37.65;;;24.42;;
1567;SDS011;777;47.156;8.326;2022-12-18T10:48:31;39.80;;;26.45;;
1567;SDS011;777;47.156;8.326;2022-12-18T10:51:00;36.95;;;25.58;;
1567;SDS011;777;47.156;8.326;2022-12-18T10:53:30;37.42;;;26.10;;
1567;SDS011;777;47.156;8.326;2022-12-18T10:56:02;41.05;;;26.45;;
1567;SDS011;777;47.156;8.326;2022-12-18T10:58:32;37.13;;;24.95;;
1567;SDS011;777;47.156;8.326;2022-12-18T11:01:02;37.13;;;24.83;;
1567;SDS011;777;47.156;8.326;2022-12-18T11:03:32;38.75;;;25.58;;
1567;SDS011;777;47.156;8.326;2022-12-18T11:06:03;38.85;;;25.38;;
1567;SDS011;777;47.156;8.326;2022-12-18T11:08:36;41.37;;;26.00;;
1567;SDS011;777;47.156;8.326;2022-12-18T11:11:04;40.13;;;25.60;;
1567;SDS011;777;47.156;8.326;2022-12-18T11:13:41;41.45;;;27.48;;
1567;SDS011;777;47.156;8.326;2022-12-18T11:16:23;40.60;;;26.50;;
1567;SDS011;777;47.156;8.326;2022-12-18T11:18:50;40.55;;;26.60;;
1567;SDS011;777;47.156;8.326;2022-12-18T11:21:18;40.30;;;26.52;;
1567;SDS011;777;47.156;8.326;2022-12-18T11:23:48;41.33;;;26.05;;
1567;SDS011;777;47.156;8.326;2022-12-18T11:26:17;41.30;;;27.17;;
1567;SDS011;777;47.156;8.326;2022-12-18T11:28:46;39.35;;;25.50;;
1567;SDS011;777;47.156;8.326;2022-12-18T11:31:17;41.58;;;26.27;;
1567;SDS011;777;47.156;8.326;2022-12-18T11:33:49;38.70;;;25.50;;
1567;SDS011;777;47.156;8.326;2022-12-18T11:36:20;42.70;;;26.65;;
1567;SDS011;777;47.156;8.326;2022-12-18T11:38:50;42.58;;;27.73;;
1567;SDS011;777;47.156;8.326;2022-12-18T11:41:21;42.50;;;27.10;;
1567;SDS011;777;47.156;8.326;2022-12-18T11:44:13;41.83;;;27.13;;
1567;SDS011;777;47.156;8.326;2022-12-18T11:46:45;45.25;;;28.67;;
1567;SDS011;777;47.156;8.326;2022-12-18T11:49:17;41.45;;;28.27;;
1567;SDS011;777;47.156;8.326;2022-12-18T11:51:50;38.85;;;26.98;;
1567;SDS011;777;47.156;8.326;2022-12-18T11:54:23;43.00;;;26.50;;
1567;SDS011;777;47.156;8.326;2022-12-18T11:56:51;42.85;;;26.65;;
1567;SDS011;777;47.156;8.326;2022-12-18T11:59:24;45.15;;;27.60;;
1567;SDS011;777;47.156;8.326;2022-12-18T12:01:59;39.67;;;25.90;;
1567;SDS011;777;47.156;8.326;2022-12-18T12:04:55;39.03;;;25.92;;
1567;SDS011;777;47.156;8.326;2022-12-18T12:07:33;37.72;;;25.52;;
1567;SDS011;777;47.156;8.326;2022-12-18T12:10:16;39.65;;;25.70;;
1567;SDS011;777;47.156;8.326;2022-12-18T12:12:55;39.50;;;26.15;;
1567;SDS011;777;47.156;8.326;2022-12-18T12:15:39;40.25;;;26.20;;
1567;SDS011;777;47.156;8.326;2022-12-18T12:18:16;38.17;;;25.50;;
1567;SDS011;777;47.156;8.326;2022-12-18T12:20:52;39.38;;;26.33;;
1567;SDS011;777;47.156;8.326;2022-12-18T12:23:30;39.08;;;25.02;;
1567;SDS011;777;47.156;8.326;2022-12-18T12:26:06;39.53;;;24.58;;
1567;SDS011;777;47.156;8.326;2022-12-18T12:28:48;39.75;;;25.60;;
1567;SDS011;777;47.156;8.326;2022-12-18T12:31:33;41.38;;;25.10;;
1567;SDS011;777;47.156;8.326;2022-12-18T12:34:12;40.63;;;25.90;;
1567;SDS011;777;47.156;8.326;2022-12-18T12:36:47;40.05;;;25.92;;
1567;SDS011;777;47.156;8.326;2022-12-18T12:39:32;40.25;;;25.27;;
1567;SDS011;777;47.156;8.326;2022-12-18T12:42:05;38.90;;;25.08;;
1567;SDS011;777;47.156;8.326;2022-12-18T12:44:55;38.92;;;24.17;;
1567;SDS011;777;47.156;8.326;2022-12-18T12:47:25;38.60;;;24.55;;
1567;SDS011;777;47.156;8.326;2022-12-18T12:49:57;39.13;;;23.98;;
1567;SDS011;777;47.156;8.326;2022-12-18T12:52:27;36.42;;;25.27;;
1567;SDS011;777;47.156;8.326;2022-12-18T12:54:58;39.67;;;24.73;;
1567;SDS011;777;47.156;8.326;2022-12-18T12:57:30;38.38;;;25.60;;
1567;SDS011;777;47.156;8.326;2022-12-18T13:00:01;40.08;;;25.58;;
1567;SDS011;777;47.156;8.326;2022-12-18T13:02:33;38.88;;;26.27;;
1567;SDS011;777;47.156;8.326;2022-12-18T13:05:08;40.38;;;24.65;;
1567;SDS011;777;47.156;8.326;2022-12-18T13:07:45;34.08;;;22.80;;
1567;SDS011;777;47.156;8.326;2022-12-18T13:10:24;36.60;;;24.20;;
1567;SDS011;777;47.156;8.326;2022-12-18T13:13:01;37.40;;;23.77;;
1567;SDS011;777;47.156;8.326;2022-12-18T13:15:30;40.75;;;25.67;;
1567;SDS011;777;47.156;8.326;2022-12-18T13:20:48;42.58;;;25.05;;
1567;SDS011;777;47.156;8.326;2022-12-18T13:23:25;42.03;;;27.05;;
1567;SDS011;777;47.156;8.326;2022-12-18T13:26:00;39.90;;;26.15;;
1567;SDS011;777;47.156;8.326;2022-12-18T13:29:02;40.97;;;25.40;;
1567;SDS011;777;47.156;8.326;2022-12-18T13:34:49;41.30;;;25.80;;
1567;SDS011;777;47.156;8.326;2022-12-18T13:37:54;41.08;;;26.13;;
1567;SDS011;777;47.156;8.326;2022-12-18T13:43:32;39.78;;;24.83;;
1567;SDS011;777;47.156;8.326;2022-12-18T13:46:06;38.88;;;25.48;;
1567;SDS011;777;47.156;8.326;2022-12-18T13:48:49;41.22;;;25.75;;
1567;SDS011;777;47.156;8.326;2022-12-18T13:51:19;39.72;;;26.05;;
1567;SDS011;777;47.156;8.326;2022-12-18T13:53:48;41.78;;;26.27;;
1567;SDS011;777;47.156;8.326;2022-12-18T13:56:22;41.40;;;26.75;;
1567;SDS011;777;47.156;8.326;2022-12-18T14:01:42;40.95;;;25.33;;
1567;SDS011;777;47.156;8.326;2022-12-18T14:04:11;44.67;;;26.83;;
1567;SDS011;777;47.156;8.326;2022-12-18T14:06:44;40.83;;;26.83;;
1567;SDS011;777;47.156;8.326;2022-12-18T14:09:13;40.65;;;25.83;;
1567;SDS011;777;47.156;8.326;2022-12-18T14:11:45;40.53;;;24.95;;
1567;SDS011;777;47.156;8.326;2022-12-18T14:14:13;39.90;;;25.67;;
1567;SDS011;777;47.156;8.326;2022-12-18T14:16:42;43.90;;;26.35;;
1567;SDS011;777;47.156;8.326;2022-12-18T14:19:10;41.03;;;26.35;;
1567;SDS011;777;47.156;8.326;2022-12-18T14:21:40;42.38;;;27.13;;
1567;SDS011;777;47.156;8.326;2022-12-18T14:24:13;46.13;;;28.52;;
1567;SDS011;777;47.156;8.326;2022-12-18T14:26:41;43.38;;;26.92;;
1567;SDS011;777;47.156;8.326;2022-12-18T14:29:20;45.45;;;28.00;;
1567;SDS011;777;47.156;8.326;2022-12-18T14:32:06;47.28;;;27.98;;
1567;SDS011;777;47.156;8.326;2022-12-18T14:34:35;45.78;;;29.30;;
1567;SDS011;777;47.156;8.326;2022-12-18T14:37:02;45.42;;;27.70;;
1567;SDS011;777;47.156;8.326;2022-12-18T14:39:30;50.67;;;31.02;;
1567;SDS011;777;47.156;8.326;2022-12-18T14:41:57;50.83;;;29.83;;
1567;SDS011;777;47.156;8.326;2022-12-18T14:44:24;52.22;;;29.90;;
1567;SDS011;777;47.156;8.326;2022-12-18T14:46:51;48.95;;;29.08;;
1567;SDS011;777;47.156;8.326;2022-12-18T14:49:21;48.95;;;28.85;;
1567;SDS011;777;47.156;8.326;2022-12-18T14:51:53;51.15;;;29.08;;
1567;SDS011;777;47.156;8.326;2022-12-18T14:54:22;53.53;;;30.65;;
1567;SDS011;777;47.156;8.326;2022-12-18T14:56:51;50.20;;;29.55;;
1567;SDS011;777;47.156;8.326;2022-12-18T14:59:26;51.15;;;30.40;;
1567;SDS011;777;47.156;8.326;2022-12-18T15:01:56;47.80;;;29.85;;
1567;SDS011;777;47.156;8.326;2022-12-18T15:04:28;55.20;;;31.63;;
1567;SDS011;777;47.156;8.326;2022-12-18T15:07:04;56.40;;;32.85;;
1567;SDS011;777;47.156;8.326;2022-12-18T15:09:36;54.83;;;32.63;;
1567;SDS011;777;47.156;8.326;2022-12-18T15:12:04;54.40;;;31.60;;
1567;SDS011;777;47.156;8.326;2022-12-18T15:14:38;56.20;;;32.45;;
1567;SDS011;777;47.156;8.326;2022-12-18T15:17:12;54.17;;;32.33;;
1567;SDS011;777;47.156;8.326;2022-12-18T15:19:44;58.25;;;32.58;;
1567;SDS011;777;47.156;8.326;2022-12-18T15:22:24;58.90;;;33.35;;
1567;SDS011;777;47.156;8.326;2022-12-18T15:24:53;56.83;;;32.38;;
1567;SDS011;777;47.156;8.326;2022-12-18T15:27:22;59.28;;;34.78;;
1567;SDS011;777;47.156;8.326;2022-12-18T15:32:47;62.05;;;33.65;;
1567;SDS011;777;47.156;8.326;2022-12-18T15:35:17;61.20;;;34.70;;
1567;SDS011;777;47.156;8.326;2022-12-18T15:37:46;66.55;;;35.33;;
1567;SDS011;777;47.156;8.326;2022-12-18T15:40:14;64.00;;;36.28;;
1567;SDS011;777;47.156;8.326;2022-12-18T15:42:42;60.83;;;35.80;;
1567;SDS011;777;47.156;8.326;2022-12-18T15:45:27;65.80;;;37.13;;
1567;SDS011;777;47.156;8.326;2022-12-18T15:47:54;64.70;;;35.85;;